• Join FlightAware (Why Join?)
  • Login
  • US Flag 
Rudolph Flight #1: Arrived! 
04:23AM EST


 

Airport Tracker/Info


-or-


 

Live Flight TrackerFlight Track Log ✈ SKQ45 ✈ 19-Apr-2013 ✈ KPAH - KSTL

Flight Track Log - Related Links

Times and Time Zones

All times are in EDT time to prevent confusion due to time zone crossing. See the SKQ45 flight status page for this flight to view local times or setup timezone preferences in your user account.

Time Position Orientation Groundspeed Altitude Reporting Facility
EDT Latitude Longitude Course Direction KTS MPH feet Rate Location/Type
10:50PM 37.0764 -88.8203 323° Northwest 174 200 5,400  Level Memphis Center
10:51PM 37.1039 -88.8458 323° Northwest 143 165 7,500 2,100 Climbing Memphis Center
10:52PM 37.1333 -88.8711 326° Northwest 130 150 9,600 1,200 Climbing Memphis Center
10:53PM 37.1692 -88.9069 321° Northwest 143 165 10,000 180 Climbing Memphis Center
10:54PM 37.3369 -89.0328 325° Northwest  Level FlightAware Approximate
10:54PM 37.2156 -88.9506 323° Northwest 174 200 10,000  Level Memphis Center
10:56PM 37.3272 -89.0447 326° Northwest 212 244 10,000  Level Kansas City Center
10:57PM 37.3750 -89.0889 324° Northwest 211 243 10,000  Level Kansas City Center
10:58PM 37.4214 -89.1344 322° Northwest 211 243 10,000  Level Kansas City Center
10:59PM 37.4703 -89.1775 325° Northwest 213 245 10,000  Level Kansas City Center
11:00PM 37.5175 -89.2206 324° Northwest 211 243 10,000  Level Kansas City Center
11:01PM 37.5753 -89.2731 324° Northwest 212 244 10,000  Level Kansas City Center
11:02PM 37.6225 -89.3164 324° Northwest 212 244 10,000  Level Kansas City Center
11:03PM 37.6700 -89.3608 323° Northwest 212 244 10,000  Level Kansas City Center
11:04PM 37.7106 -89.3978 324° Northwest 211 243 10,000  Level Kansas City Center
11:05PM 37.7572 -89.4417 323° Northwest 209 241 10,000  Level Kansas City Center
11:06PM 37.8131 -89.4928 324° Northwest 207 238 10,000  Level Kansas City Center
11:07PM 37.8611 -89.5367 324° Northwest 209 241 10,000  Level Kansas City Center
11:08PM 37.9086 -89.5792 325° Northwest 209 241 10,000  Level Kansas City Center
11:09PM 37.9547 -89.6222 324° Northwest 206 237 10,000  Level Kansas City Center
11:10PM 38.0050 -89.6694 324° Northwest 209 241 10,000  Level Kansas City Center
11:11PM 38.0250 -89.6336 55° Northeast 208 239 10,000  Level FAA TRACON SMA TRACON (SMA)
11:11PM 38.0400 -89.6461 327° Northwest 209 241 10,000  Level FAA TRACON SMA TRACON (SMA)
11:11PM 38.0556 -89.6572 331° Northwest 211 243 10,000  Level FAA TRACON SMA TRACON (SMA)
11:12PM 38.0750 -89.6719 329° Northwest 210 242 10,000  Level FAA TRACON SMA TRACON (SMA)
11:12PM 38.0886 -89.6878 318° Northwest 214 246 10,000  Level FAA TRACON SMA TRACON (SMA)
11:12PM 38.1108 -89.6981 340° North 215 247 10,000  Level FAA TRACON SMA TRACON (SMA)
11:13PM 38.1253 -89.7122 322° Northwest 212 244 10,000  Level FAA TRACON SMA TRACON (SMA)
11:13PM 38.1414 -89.7228 333° Northwest 211 243 10,000  Level FAA TRACON SMA TRACON (SMA)
11:13PM 38.1569 -89.7350 328° Northwest 213 245 10,000  Level FAA TRACON SMA TRACON (SMA)
11:14PM 38.1767 -89.7494 330° Northwest 214 246 10,000  Level FAA TRACON SMA TRACON (SMA)
11:14PM 38.1922 -89.7622 327° Northwest 214 246 10,000  Level FAA TRACON SMA TRACON (SMA)
11:14PM 38.2075 -89.7747 327° Northwest 214 246 10,000  Level FAA TRACON SMA TRACON (SMA)
11:15PM 38.2264 -89.7908 326° Northwest 213 245 10,000 -180 Level FAA TRACON SMA TRACON (SMA)
11:15PM 38.2422 -89.8031 329° Northwest 216 249 9,900  Descending FAA TRACON SMA TRACON (SMA)
11:15PM 38.2586 -89.8139 333° Northwest 216 249 10,000 120 Climbing FAA TRACON SMA TRACON (SMA)
11:16PM 38.2781 -89.8289 329° Northwest 213 245 10,000  Level FAA TRACON SMA TRACON (SMA)
11:16PM 38.2931 -89.8419 326° Northwest 212 244 10,000  Level FAA TRACON SMA TRACON (SMA)
11:16PM 38.3089 -89.8536 330° Northwest 214 246 10,000  Level FAA TRACON SMA TRACON (SMA)
11:17PM 38.3275 -89.8700 325° Northwest 213 245 10,000  Level FAA TRACON SMA TRACON (SMA)
11:17PM 38.3433 -89.8819 329° Northwest 214 246 10,000  Level FAA TRACON SMA TRACON (SMA)
11:17PM 38.3597 -89.8928 333° Northwest 215 247 10,000  Level FAA TRACON SMA TRACON (SMA)
11:18PM 38.3789 -89.9086 327° Northwest 216 249 10,000  Level FAA TRACON SMA TRACON (SMA)
11:18PM 38.3939 -89.9225 324° Northwest 216 249 10,000 -600 Level FAA TRACON SMA TRACON (SMA)
11:18PM 38.4108 -89.9336 333° Northwest 219 252 9,600 -1,260 Descending FAA TRACON SMA TRACON (SMA)
11:19PM 38.4308 -89.9500 327° Northwest 225 259 9,200 -1,080 Descending FAA TRACON SMA TRACON (SMA)
11:19PM 38.4472 -89.9625 329° Northwest 225 259 8,900 -900 Descending FAA TRACON SMA TRACON (SMA)
11:19PM 38.4625 -89.9764 325° Northwest 222 255 8,600 -1,080 Descending FAA TRACON SMA TRACON (SMA)
11:20PM 38.4825 -89.9917 329° Northwest 218 251 8,200 -900 Descending FAA TRACON SMA TRACON (SMA)
11:20PM 38.4992 -90.0036 331° Northwest 220 253 8,000 -1,080 Descending FAA TRACON SMA TRACON (SMA)
11:20PM 38.5197 -90.0192 329° Northwest 221 254 7,500 -1,260 Descending FAA TRACON SMA TRACON (SMA)
11:21PM 38.5358 -90.0311 330° Northwest 220 253 7,200 -780 Descending FAA TRACON SMA TRACON (SMA)
11:21PM 38.5506 -90.0447 324° Northwest 217 250 7,000 -1,080 Descending FAA TRACON SMA TRACON (SMA)
11:21PM 38.5711 -90.0600 330° Northwest 220 253 6,500 -1,500 Descending FAA TRACON SMA TRACON (SMA)
11:22PM 38.5867 -90.0725 328° Northwest 216 249 6,000 -1,560 Descending FAA TRACON SMA TRACON (SMA)
11:22PM 38.6028 -90.0842 330° Northwest 215 247 5,500 -1,800 Descending FAA TRACON SMA TRACON (SMA)
11:22PM 38.6217 -90.0994 328° Northwest 211 243 4,800 -2,100 Descending FAA TRACON SMA TRACON (SMA)
11:23PM 38.6367 -90.1128 325° Northwest 211 243 4,100 -2,040 Descending FAA TRACON SMA TRACON (SMA)
11:23PM 38.6506 -90.1272 321° Northwest 210 242 3,500 -1,800 Descending FAA TRACON SMA TRACON (SMA)
11:23PM 38.6642 -90.1469 311° West 198 228 2,900 -1,500 Descending FAA TRACON SMA TRACON (SMA)
11:24PM 38.6739 -90.1636 307° West 189 217 2,500 -1,080 Descending FAA TRACON SMA TRACON (SMA)
11:24PM 38.6819 -90.1800 302° West 180 207 2,200 -780 Descending FAA TRACON SMA TRACON (SMA)
11:24PM 38.6894 -90.1958 301° West 171 197 2,000 -780 Descending FAA TRACON SMA TRACON (SMA)
11:25PM 38.6986 -90.2133 304° West 157 181 1,700 -600 Descending FAA TRACON SMA TRACON (SMA)
11:25PM 38.7053 -90.2267 303° West 148 170 1,600 -480 Descending FAA TRACON SMA TRACON (SMA)
11:25PM 38.7111 -90.2386 302° West 135 155 1,400 -600 Descending FAA TRACON SMA TRACON (SMA)
11:26PM 38.7186 -90.2536 303° West 108 124 1,200 -480 Descending FAA TRACON SMA TRACON (SMA)
11:26PM 38.7219 -90.2603 303° West 99 114 1,100 -540 Descending FAA TRACON SMA TRACON (SMA)
11:26PM 38.7258 -90.2689 300° West 93 107 900 -660 Descending FAA TRACON SMA TRACON (SMA)
11:27PM 38.7314 -90.2794 304° West 91 105 700 -600 Descending FAA TRACON SMA TRACON (SMA)
11:29PM 38.7333 -90.3667 345° North  Level FlightAware Approximate
11:36PM 38.7487 -90.3700 345° North  Level Estimated